Bristolville, OH (44402)

4:50 AM EST on November 28, 2014 (GMT -0500)
Bazetta Township | Change Station
CLOSE
Current Station
Personal Weather Station
Location: Cortland, OH
Elevation: 960 ft
Nearby Weather Stations

Elev 960 ft 41.31 °N, 80.74 °W | Updated 20 seconds ago

Overcast
Overcast
24.1 °F
Feels Like 24 °F
N
0.0
Wind Variable Wind from NW
Gusts 0.0 mph

Today
High -- | Low -- °F
--% Chance of Precip.
Yesterday
High -- | Low -- °F
Precip. -- in
7:26 AM 4:55 PM
Waxing Crescent, 38% visible
Pressure 30.29 in
Visibility 9.0 miles
Clouds Few 900 ft
Scattered Clouds 3200 ft
Overcast 5000 ft
Windchill 24 °F
Dew Point 21 °F
Humidity 88%
Rainfall 0.00 in
Snow Depth Not available.
UV 0 out of 12
Pollen .10 out of 12
Air Quality Not available.
Flu Activity Not available.
METAR KYNG 280851Z 25005KT 9SM -SN FEW009 SCT032 OVC050 M06/M07 A3024 RMK AO2 SLP257 P0000 60000 T10561072 53013

More Conditions Fewer Conditions

Pressure 30.29 in
Visibility 9.0 miles
Clouds Few 900 ft
Scattered Clouds 3200 ft
Overcast 5000 ft
Windchill 24 °F
Dew Point 21 °F
Humidity 88%
Rainfall 0.00 in
Snow Depth Not available.
UV 0 out of 12
Pollen .10 out of 12
Air Quality Not available.
Flu Activity Not available.
METAR KYNG 280851Z 25005KT 9SM -SN FEW009 SCT032 OVC050 M06/M07 A3024 RMK AO2 SLP257 P0000 60000 T10561072 53013

More Conditions Fewer Conditions

10-Day Weather Forecast

Almanac

Astronomy

Nov. 28, 2014 Rise Set
Actual Time
Civil Twilight
Nautical Twilight
Astronomical Twilight
Moon
Length of Visible Light
Length of Day
Tomorrow will be .
, % of the Moon is Illuminated

Today's Extremes

State Highs State Lows

Community

WunderPhotos

Upload Photos

1,774,190 photos uploaded!

WunderBlogs® & News

Nearby

Air Quality

  Air Quality AQ Index Pollutant
Not available.

Snow Depth

Station Depth Elevation

Earthquake Activity

City Distance Mag. Time & Date
Minimum magnitude displayed is 2.5.

Coastal Water Temperatures

Place Temperature

Nearby Weather Stations